sensor_id;sensor_type;location;lat;lon;timestamp;temperature;humidity
39665;DHT22;26679;50.872;4.332;2022-08-21T00:01:51;19.40;96.60
39665;DHT22;26679;50.872;4.332;2022-08-21T00:04:17;19.40;96.80
39665;DHT22;26679;50.872;4.332;2022-08-21T00:06:42;19.40;96.90
39665;DHT22;26679;50.872;4.332;2022-08-21T00:09:08;19.30;97.00
39665;DHT22;26679;50.872;4.332;2022-08-21T00:11:34;19.20;97.50
39665;DHT22;26679;50.872;4.332;2022-08-21T00:14:00;19.10;97.60
39665;DHT22;26679;50.872;4.332;2022-08-21T00:16:26;19.10;97.80
39665;DHT22;26679;50.872;4.332;2022-08-21T00:18:51;19.10;98.20
39665;DHT22;26679;50.872;4.332;2022-08-21T00:21:17;19.00;98.50
39665;DHT22;26679;50.872;4.332;2022-08-21T00:23:42;19.00;98.60
39665;DHT22;26679;50.872;4.332;2022-08-21T00:26:08;19.00;98.80
39665;DHT22;26679;50.872;4.332;2022-08-21T00:28:33;19.00;99.00
39665;DHT22;26679;50.872;4.332;2022-08-21T00:30:59;19.00;99.00
39665;DHT22;26679;50.872;4.332;2022-08-21T00:33:25;19.00;99.30
39665;DHT22;26679;50.872;4.332;2022-08-21T00:35:51;19.10;99.40
39665;DHT22;26679;50.872;4.332;2022-08-21T00:38:16;19.00;99.40
39665;DHT22;26679;50.872;4.332;2022-08-21T00:40:44;19.00;99.60
39665;DHT22;26679;50.872;4.332;2022-08-21T00:43:11;19.00;99.70
39665;DHT22;26679;50.872;4.332;2022-08-21T00:45:36;18.90;99.80
39665;DHT22;26679;50.872;4.332;2022-08-21T00:48:02;18.80;99.90
39665;DHT22;26679;50.872;4.332;2022-08-21T00:50:29;18.80;99.90
39665;DHT22;26679;50.872;4.332;2022-08-21T00:52:57;18.70;99.90
39665;DHT22;26679;50.872;4.332;2022-08-21T00:55:23;18.70;99.90
39665;DHT22;26679;50.872;4.332;2022-08-21T00:57:50;18.60;99.90
39665;DHT22;26679;50.872;4.332;2022-08-21T01:00:20;18.50;99.90
39665;DHT22;26679;50.872;4.332;2022-08-21T01:02:46;18.60;99.90
39665;DHT22;26679;50.872;4.332;2022-08-21T01:05:13;18.60;99.90
39665;DHT22;26679;50.872;4.332;2022-08-21T01:07:38;18.60;99.90
39665;DHT22;26679;50.872;4.332;2022-08-21T01:10:05;18.60;99.90
39665;DHT22;26679;50.872;4.332;2022-08-21T01:12:31;18.60;99.90
39665;DHT22;26679;50.872;4.332;2022-08-21T01:14:57;18.60;99.90
39665;DHT22;26679;50.872;4.332;2022-08-21T01:17:23;18.50;99.90
39665;DHT22;26679;50.872;4.332;2022-08-21T01:19:49;18.50;99.90
39665;DHT22;26679;50.872;4.332;2022-08-21T01:22:15;18.50;99.90
39665;DHT22;26679;50.872;4.332;2022-08-21T01:24:40;18.50;99.90
39665;DHT22;26679;50.872;4.332;2022-08-21T01:27:06;18.50;99.90
39665;DHT22;26679;50.872;4.332;2022-08-21T01:29:34;18.50;99.90
39665;DHT22;26679;50.872;4.332;2022-08-21T01:32:06;18.40;99.90
39665;DHT22;26679;50.872;4.332;2022-08-21T01:34:32;18.40;99.90
39665;DHT22;26679;50.872;4.332;2022-08-21T01:36:59;18.40;99.90
39665;DHT22;26679;50.872;4.332;2022-08-21T01:39:24;18.30;99.90
39665;DHT22;26679;50.872;4.332;2022-08-21T01:41:50;18.40;99.90
39665;DHT22;26679;50.872;4.332;2022-08-21T01:44:15;18.40;99.90
39665;DHT22;26679;50.872;4.332;2022-08-21T01:46:40;18.20;99.90
39665;DHT22;26679;50.872;4.332;2022-08-21T01:49:06;18.20;99.90
39665;DHT22;26679;50.872;4.332;2022-08-21T01:51:32;18.20;99.90
39665;DHT22;26679;50.872;4.332;2022-08-21T01:53:57;18.20;99.90
39665;DHT22;26679;50.872;4.332;2022-08-21T01:56:23;18.20;99.90
39665;DHT22;26679;50.872;4.332;2022-08-21T01:58:49;18.30;99.90
39665;DHT22;26679;50.872;4.332;2022-08-21T02:01:15;18.20;99.90
39665;DHT22;26679;50.872;4.332;2022-08-21T02:03:41;18.20;99.90
39665;DHT22;26679;50.872;4.332;2022-08-21T02:06:07;18.20;99.90
39665;DHT22;26679;50.872;4.332;2022-08-21T02:08:32;18.10;99.90
39665;DHT22;26679;50.872;4.332;2022-08-21T02:10:58;18.10;99.90
39665;DHT22;26679;50.872;4.332;2022-08-21T02:13:25;18.10;99.90
39665;DHT22;26679;50.872;4.332;2022-08-21T02:15:51;18.10;99.90
39665;DHT22;26679;50.872;4.332;2022-08-21T02:18:17;18.10;99.90
39665;DHT22;26679;50.872;4.332;2022-08-21T02:20:44;18.10;99.90
39665;DHT22;26679;50.872;4.332;2022-08-21T02:23:11;18.10;99.90
39665;DHT22;26679;50.872;4.332;2022-08-21T02:25:37;18.10;99.90
39665;DHT22;26679;50.872;4.332;2022-08-21T02:28:04;18.10;99.90
39665;DHT22;26679;50.872;4.332;2022-08-21T02:30:31;18.10;99.90
39665;DHT22;26679;50.872;4.332;2022-08-21T02:32:57;18.10;99.90
39665;DHT22;26679;50.872;4.332;2022-08-21T02:35:23;18.10;99.90
39665;DHT22;26679;50.872;4.332;2022-08-21T02:37:52;18.00;99.90
39665;DHT22;26679;50.872;4.332;2022-08-21T02:40:19;18.00;99.90
39665;DHT22;26679;50.872;4.332;2022-08-21T02:42:45;18.00;99.90
39665;DHT22;26679;50.872;4.332;2022-08-21T02:45:11;17.90;99.90
39665;DHT22;26679;50.872;4.332;2022-08-21T02:47:36;18.00;99.90
39665;DHT22;26679;50.872;4.332;2022-08-21T02:50:03;18.00;99.90
39665;DHT22;26679;50.872;4.332;2022-08-21T02:52:28;18.00;99.90
39665;DHT22;26679;50.872;4.332;2022-08-21T02:54:54;17.90;99.90
39665;DHT22;26679;50.872;4.332;2022-08-21T02:57:19;17.90;99.90
39665;DHT22;26679;50.872;4.332;2022-08-21T02:59:45;17.90;99.90
39665;DHT22;26679;50.872;4.332;2022-08-21T03:02:12;17.90;99.90
39665;DHT22;26679;50.872;4.332;2022-08-21T03:04:37;17.90;99.90
39665;DHT22;26679;50.872;4.332;2022-08-21T03:07:03;17.90;99.90
39665;DHT22;26679;50.872;4.332;2022-08-21T03:09:29;17.80;99.90
39665;DHT22;26679;50.872;4.332;2022-08-21T03:11:54;17.80;99.90
39665;DHT22;26679;50.872;4.332;2022-08-21T03:14:19;17.80;99.90
39665;DHT22;26679;50.872;4.332;2022-08-21T03:16:45;17.80;99.90
39665;DHT22;26679;50.872;4.332;2022-08-21T03:19:11;17.70;99.90
39665;DHT22;26679;50.872;4.332;2022-08-21T03:21:37;17.60;99.90
39665;DHT22;26679;50.872;4.332;2022-08-21T03:24:02;17.60;99.90
39665;DHT22;26679;50.872;4.332;2022-08-21T03:26:29;17.60;99.90
39665;DHT22;26679;50.872;4.332;2022-08-21T03:28:54;17.60;99.90
39665;DHT22;26679;50.872;4.332;2022-08-21T03:31:21;17.60;99.90
39665;DHT22;26679;50.872;4.332;2022-08-21T03:33:47;17.60;99.90
39665;DHT22;26679;50.872;4.332;2022-08-21T03:36:12;17.60;99.90
39665;DHT22;26679;50.872;4.332;2022-08-21T03:38:38;17.60;99.90
39665;DHT22;26679;50.872;4.332;2022-08-21T03:41:04;17.50;99.90
39665;DHT22;26679;50.872;4.332;2022-08-21T03:43:30;17.50;99.90
39665;DHT22;26679;50.872;4.332;2022-08-21T03:45:55;17.60;99.90
39665;DHT22;26679;50.872;4.332;2022-08-21T03:48:21;17.60;99.90
39665;DHT22;26679;50.872;4.332;2022-08-21T03:50:47;17.50;99.90
39665;DHT22;26679;50.872;4.332;2022-08-21T03:53:14;17.50;99.90
39665;DHT22;26679;50.872;4.332;2022-08-21T03:55:40;17.40;99.90
39665;DHT22;26679;50.872;4.332;2022-08-21T03:58:06;17.40;99.90
39665;DHT22;26679;50.872;4.332;2022-08-21T04:00:32;17.40;99.90
39665;DHT22;26679;50.872;4.332;2022-08-21T04:02:57;17.40;99.90
39665;DHT22;26679;50.872;4.332;2022-08-21T04:05:23;17.40;99.90
39665;DHT22;26679;50.872;4.332;2022-08-21T04:07:59;17.40;99.90
39665;DHT22;26679;50.872;4.332;2022-08-21T04:10:26;17.30;99.90
39665;DHT22;26679;50.872;4.332;2022-08-21T04:12:52;17.30;99.90
39665;DHT22;26679;50.872;4.332;2022-08-21T04:15:18;17.20;99.90
39665;DHT22;26679;50.872;4.332;2022-08-21T04:17:44;17.20;99.90
39665;DHT22;26679;50.872;4.332;2022-08-21T04:20:09;17.20;99.90
39665;DHT22;26679;50.872;4.332;2022-08-21T04:22:35;17.10;99.90
39665;DHT22;26679;50.872;4.332;2022-08-21T04:25:00;17.10;99.90
39665;DHT22;26679;50.872;4.332;2022-08-21T04:27:26;17.10;99.90
39665;DHT22;26679;50.872;4.332;2022-08-21T04:29:51;17.00;99.90
39665;DHT22;26679;50.872;4.332;2022-08-21T04:32:24;17.00;99.90
39665;DHT22;26679;50.872;4.332;2022-08-21T04:34:50;17.00;99.90
39665;DHT22;26679;50.872;4.332;2022-08-21T04:37:15;16.90;99.90
39665;DHT22;26679;50.872;4.332;2022-08-21T04:39:41;16.90;99.90
39665;DHT22;26679;50.872;4.332;2022-08-21T04:42:07;16.90;99.90
39665;DHT22;26679;50.872;4.332;2022-08-21T04:44:33;16.90;99.90
39665;DHT22;26679;50.872;4.332;2022-08-21T04:46:58;16.90;99.90
39665;DHT22;26679;50.872;4.332;2022-08-21T04:49:24;16.90;99.90
39665;DHT22;26679;50.872;4.332;2022-08-21T04:51:49;16.90;99.90
39665;DHT22;26679;50.872;4.332;2022-08-21T04:54:19;16.80;99.90
39665;DHT22;26679;50.872;4.332;2022-08-21T04:56:47;16.80;99.90
39665;DHT22;26679;50.872;4.332;2022-08-21T04:59:16;16.80;99.90
39665;DHT22;26679;50.872;4.332;2022-08-21T05:01:44;16.80;99.90
39665;DHT22;26679;50.872;4.332;2022-08-21T05:04:10;16.70;99.90
39665;DHT22;26679;50.872;4.332;2022-08-21T05:06:37;16.70;99.90
39665;DHT22;26679;50.872;4.332;2022-08-21T05:09:06;16.70;99.90
39665;DHT22;26679;50.872;4.332;2022-08-21T05:11:34;16.80;99.90
39665;DHT22;26679;50.872;4.332;2022-08-21T05:14:00;16.80;99.90
39665;DHT22;26679;50.872;4.332;2022-08-21T05:16:25;16.80;99.90
39665;DHT22;26679;50.872;4.332;2022-08-21T05:18:51;16.80;99.90
39665;DHT22;26679;50.872;4.332;2022-08-21T05:21:17;16.80;99.90
39665;DHT22;26679;50.872;4.332;2022-08-21T05:23:42;16.80;99.90
39665;DHT22;26679;50.872;4.332;2022-08-21T05:26:08;16.80;99.90
39665;DHT22;26679;50.872;4.332;2022-08-21T05:28:33;16.80;99.90
39665;DHT22;26679;50.872;4.332;2022-08-21T05:30:59;16.90;99.90
39665;DHT22;26679;50.872;4.332;2022-08-21T05:33:25;16.90;99.90
39665;DHT22;26679;50.872;4.332;2022-08-21T05:35:51;16.90;99.90
39665;DHT22;26679;50.872;4.332;2022-08-21T05:38:17;16.90;99.90
39665;DHT22;26679;50.872;4.332;2022-08-21T05:40:43;16.80;99.90
39665;DHT22;26679;50.872;4.332;2022-08-21T05:43:09;16.70;99.90
39665;DHT22;26679;50.872;4.332;2022-08-21T05:45:34;16.70;99.90
39665;DHT22;26679;50.872;4.332;2022-08-21T05:50:36;16.80;99.90
39665;DHT22;26679;50.872;4.332;2022-08-21T05:53:03;16.90;99.90
39665;DHT22;26679;50.872;4.332;2022-08-21T05:55:29;16.90;99.90
39665;DHT22;26679;50.872;4.332;2022-08-21T05:57:54;16.90;99.90
39665;DHT22;26679;50.872;4.332;2022-08-21T06:00:20;16.80;99.90
39665;DHT22;26679;50.872;4.332;2022-08-21T06:02:48;16.80;99.90
39665;DHT22;26679;50.872;4.332;2022-08-21T06:05:15;16.90;99.90
39665;DHT22;26679;50.872;4.332;2022-08-21T06:07:40;16.90;99.90
39665;DHT22;26679;50.872;4.332;2022-08-21T06:10:06;16.90;99.90
39665;DHT22;26679;50.872;4.332;2022-08-21T06:12:32;16.80;99.90
39665;DHT22;26679;50.872;4.332;2022-08-21T06:14:57;16.80;99.90
39665;DHT22;26679;50.872;4.332;2022-08-21T06:17:23;16.90;99.90
39665;DHT22;26679;50.872;4.332;2022-08-21T06:19:52;16.90;99.90
39665;DHT22;26679;50.872;4.332;2022-08-21T06:22:18;16.90;99.90
39665;DHT22;26679;50.872;4.332;2022-08-21T06:24:43;16.90;99.90
39665;DHT22;26679;50.872;4.332;2022-08-21T06:27:09;17.10;99.90
39665;DHT22;26679;50.872;4.332;2022-08-21T06:29:35;17.20;99.90
39665;DHT22;26679;50.872;4.332;2022-08-21T06:32:00;17.20;99.90
39665;DHT22;26679;50.872;4.332;2022-08-21T06:34:26;17.10;99.90
39665;DHT22;26679;50.872;4.332;2022-08-21T06:36:52;17.20;99.90
39665;DHT22;26679;50.872;4.332;2022-08-21T06:39:17;17.30;99.90
39665;DHT22;26679;50.872;4.332;2022-08-21T06:41:43;17.40;99.90
39665;DHT22;26679;50.872;4.332;2022-08-21T06:44:08;17.70;99.90
39665;DHT22;26679;50.872;4.332;2022-08-21T06:46:34;18.00;99.90
39665;DHT22;26679;50.872;4.332;2022-08-21T06:48:59;18.20;99.90
39665;DHT22;26679;50.872;4.332;2022-08-21T06:51:25;18.20;99.90
39665;DHT22;26679;50.872;4.332;2022-08-21T06:53:51;18.20;99.90
39665;DHT22;26679;50.872;4.332;2022-08-21T06:56:16;18.10;99.90
39665;DHT22;26679;50.872;4.332;2022-08-21T06:58:42;18.10;99.90
39665;DHT22;26679;50.872;4.332;2022-08-21T07:01:07;18.20;99.90
39665;DHT22;26679;50.872;4.332;2022-08-21T07:03:34;18.20;99.90
39665;DHT22;26679;50.872;4.332;2022-08-21T07:06:01;18.20;99.90
39665;DHT22;26679;50.872;4.332;2022-08-21T07:08:27;18.30;99.90
39665;DHT22;26679;50.872;4.332;2022-08-21T07:10:53;18.30;99.90
39665;DHT22;26679;50.872;4.332;2022-08-21T07:13:20;18.40;99.90
39665;DHT22;26679;50.872;4.332;2022-08-21T07:15:45;18.50;99.90
39665;DHT22;26679;50.872;4.332;2022-08-21T07:18:11;18.60;99.90
39665;DHT22;26679;50.872;4.332;2022-08-21T07:20:38;18.70;99.90
39665;DHT22;26679;50.872;4.332;2022-08-21T07:23:05;18.70;99.90
39665;DHT22;26679;50.872;4.332;2022-08-21T07:25:31;18.80;99.90
39665;DHT22;26679;50.872;4.332;2022-08-21T07:27:56;18.90;99.90
39665;DHT22;26679;50.872;4.332;2022-08-21T07:30:22;19.00;99.90
39665;DHT22;26679;50.872;4.332;2022-08-21T07:32:48;19.00;99.90
39665;DHT22;26679;50.872;4.332;2022-08-21T07:35:17;19.00;99.90
39665;DHT22;26679;50.872;4.332;2022-08-21T07:37:42;19.10;99.90
39665;DHT22;26679;50.872;4.332;2022-08-21T07:40:08;19.10;99.90
39665;DHT22;26679;50.872;4.332;2022-08-21T07:42:34;19.30;99.90
39665;DHT22;26679;50.872;4.332;2022-08-21T07:44:59;19.30;99.90
39665;DHT22;26679;50.872;4.332;2022-08-21T07:47:24;19.30;99.90
39665;DHT22;26679;50.872;4.332;2022-08-21T07:49:50;19.40;99.90
39665;DHT22;26679;50.872;4.332;2022-08-21T07:52:16;19.50;99.90
39665;DHT22;26679;50.872;4.332;2022-08-21T07:54:41;19.60;99.90
39665;DHT22;26679;50.872;4.332;2022-08-21T07:57:07;19.60;99.90
39665;DHT22;26679;50.872;4.332;2022-08-21T07:59:32;19.70;99.90
39665;DHT22;26679;50.872;4.332;2022-08-21T08:01:58;19.80;99.90
39665;DHT22;26679;50.872;4.332;2022-08-21T08:04:23;20.10;99.90
39665;DHT22;26679;50.872;4.332;2022-08-21T08:06:52;20.00;99.90
39665;DHT22;26679;50.872;4.332;2022-08-21T08:09:18;20.10;99.90
39665;DHT22;26679;50.872;4.332;2022-08-21T08:11:43;20.20;99.90
39665;DHT22;26679;50.872;4.332;2022-08-21T08:14:09;20.20;99.90
39665;DHT22;26679;50.872;4.332;2022-08-21T08:16:35;20.20;99.90
39665;DHT22;26679;50.872;4.332;2022-08-21T08:19:00;20.30;99.90
39665;DHT22;26679;50.872;4.332;2022-08-21T08:21:26;20.30;99.90
39665;DHT22;26679;50.872;4.332;2022-08-21T08:23:52;20.40;99.90
39665;DHT22;26679;50.872;4.332;2022-08-21T08:26:18;20.60;99.90
39665;DHT22;26679;50.872;4.332;2022-08-21T08:28:44;20.40;99.90
39665;DHT22;26679;50.872;4.332;2022-08-21T08:31:09;20.30;99.90
39665;DHT22;26679;50.872;4.332;2022-08-21T08:33:35;20.40;99.90
39665;DHT22;26679;50.872;4.332;2022-08-21T08:36:02;20.40;99.90
39665;DHT22;26679;50.872;4.332;2022-08-21T08:38:28;20.40;99.90
39665;DHT22;26679;50.872;4.332;2022-08-21T08:41:10;20.40;99.90
39665;DHT22;26679;50.872;4.332;2022-08-21T08:43:38;20.50;99.90
39665;DHT22;26679;50.872;4.332;2022-08-21T08:46:06;20.50;99.90
39665;DHT22;26679;50.872;4.332;2022-08-21T08:48:41;20.60;99.90
39665;DHT22;26679;50.872;4.332;2022-08-21T08:51:10;20.80;99.90
39665;DHT22;26679;50.872;4.332;2022-08-21T08:53:42;20.80;99.90
39665;DHT22;26679;50.872;4.332;2022-08-21T08:56:09;20.90;99.90
39665;DHT22;26679;50.872;4.332;2022-08-21T08:58:39;20.90;99.90
39665;DHT22;26679;50.872;4.332;2022-08-21T09:01:08;21.00;99.90
39665;DHT22;26679;50.872;4.332;2022-08-21T09:03:40;21.00;99.90
39665;DHT22;26679;50.872;4.332;2022-08-21T09:06:08;21.10;99.90
39665;DHT22;26679;50.872;4.332;2022-08-21T09:11:23;22.40;99.90
39665;DHT22;26679;50.872;4.332;2022-08-21T09:26:22;25.60;93.80
39665;DHT22;26679;50.872;4.332;2022-08-21T09:28:51;25.80;93.00
39665;DHT22;26679;50.872;4.332;2022-08-21T09:33:57;26.40;92.20
39665;DHT22;26679;50.872;4.332;2022-08-21T09:36:45;26.70;90.90
39665;DHT22;26679;50.872;4.332;2022-08-21T09:39:10;27.10;90.20
39665;DHT22;26679;50.872;4.332;2022-08-21T09:41:36;27.20;89.60
39665;DHT22;26679;50.872;4.332;2022-08-21T09:44:02;27.00;89.50
39665;DHT22;26679;50.872;4.332;2022-08-21T09:46:28;26.70;89.80
39665;DHT22;26679;50.872;4.332;2022-08-21T09:48:56;26.70;90.00
39665;DHT22;26679;50.872;4.332;2022-08-21T09:51:28;26.40;90.30
39665;DHT22;26679;50.872;4.332;2022-08-21T09:56:33;26.00;90.80
39665;DHT22;26679;50.872;4.332;2022-08-21T09:59:13;26.00;90.70
39665;DHT22;26679;50.872;4.332;2022-08-21T10:01:44;25.80;90.90
39665;DHT22;26679;50.872;4.332;2022-08-21T10:04:10;25.60;91.10
39665;DHT22;26679;50.872;4.332;2022-08-21T10:06:36;25.40;90.90
39665;DHT22;26679;50.872;4.332;2022-08-21T10:11:30;24.80;91.70
39665;DHT22;26679;50.872;4.332;2022-08-21T10:14:03;24.90;92.20
39665;DHT22;26679;50.872;4.332;2022-08-21T10:42:09;26.20;90.10
39665;DHT22;26679;50.872;4.332;2022-08-21T10:49:49;28.20;87.20
39665;DHT22;26679;50.872;4.332;2022-08-21T10:54:47;28.30;84.70
39665;DHT22;26679;50.872;4.332;2022-08-21T10:57:19;28.90;85.00
39665;DHT22;26679;50.872;4.332;2022-08-21T10:59:49;29.20;83.00
39665;DHT22;26679;50.872;4.332;2022-08-21T11:02:21;29.20;83.20
39665;DHT22;26679;50.872;4.332;2022-08-21T11:05:01;29.70;82.60
39665;DHT22;26679;50.872;4.332;2022-08-21T11:09:54;29.50;81.30
39665;DHT22;26679;50.872;4.332;2022-08-21T11:17:24;28.60;82.90
39665;DHT22;26679;50.872;4.332;2022-08-21T11:22:36;28.10;84.10
39665;DHT22;26679;50.872;4.332;2022-08-21T11:25:06;27.70;84.60
39665;DHT22;26679;50.872;4.332;2022-08-21T11:29:59;28.70;82.40
39665;DHT22;26679;50.872;4.332;2022-08-21T11:40:05;27.80;84.50
39665;DHT22;26679;50.872;4.332;2022-08-21T11:50:18;28.70;83.30
39665;DHT22;26679;50.872;4.332;2022-08-21T11:52:48;29.20;81.50
39665;DHT22;26679;50.872;4.332;2022-08-21T11:55:20;29.50;81.50
39665;DHT22;26679;50.872;4.332;2022-08-21T12:00:19;31.00;79.40
39665;DHT22;26679;50.872;4.332;2022-08-21T12:02:48;32.00;77.70
39665;DHT22;26679;50.872;4.332;2022-08-21T12:08:00;32.60;74.80
39665;DHT22;26679;50.872;4.332;2022-08-21T12:10:30;33.40;74.80
39665;DHT22;26679;50.872;4.332;2022-08-21T12:13:04;33.90;73.60
39665;DHT22;26679;50.872;4.332;2022-08-21T12:15:30;33.70;72.70
39665;DHT22;26679;50.872;4.332;2022-08-21T12:17:57;32.90;72.70
39665;DHT22;26679;50.872;4.332;2022-08-21T12:20:26;31.40;73.30
39665;DHT22;26679;50.872;4.332;2022-08-21T12:25:38;31.20;74.10
39665;DHT22;26679;50.872;4.332;2022-08-21T12:28:09;30.80;75.10
39665;DHT22;26679;50.872;4.332;2022-08-21T12:30:37;31.80;75.00
39665;DHT22;26679;50.872;4.332;2022-08-21T12:33:04;32.20;74.20
39665;DHT22;26679;50.872;4.332;2022-08-21T12:35:40;32.70;74.30
39665;DHT22;26679;50.872;4.332;2022-08-21T12:38:17;33.50;72.70
39665;DHT22;26679;50.872;4.332;2022-08-21T12:45:51;31.80;72.40
39665;DHT22;26679;50.872;4.332;2022-08-21T12:48:20;30.40;74.30
39665;DHT22;26679;50.872;4.332;2022-08-21T12:50:48;29.70;75.70
39665;DHT22;26679;50.872;4.332;2022-08-21T12:55:51;28.90;76.70
39665;DHT22;26679;50.872;4.332;2022-08-21T12:58:20;28.50;77.30
39665;DHT22;26679;50.872;4.332;2022-08-21T13:00:50;28.60;76.90
39665;DHT22;26679;50.872;4.332;2022-08-21T13:03:17;28.60;77.00
39665;DHT22;26679;50.872;4.332;2022-08-21T13:05:43;28.60;76.50
39665;DHT22;26679;50.872;4.332;2022-08-21T13:08:09;27.70;76.40
39665;DHT22;26679;50.872;4.332;2022-08-21T13:10:36;28.10;77.30
39665;DHT22;26679;50.872;4.332;2022-08-21T13:13:03;28.00;77.70
39665;DHT22;26679;50.872;4.332;2022-08-21T13:15:30;28.10;77.60
39665;DHT22;26679;50.872;4.332;2022-08-21T13:17:56;28.20;77.90
39665;DHT22;26679;50.872;4.332;2022-08-21T13:20:37;28.30;78.20
39665;DHT22;26679;50.872;4.332;2022-08-21T13:23:21;28.40;78.30
39665;DHT22;26679;50.872;4.332;2022-08-21T13:25:48;28.50;78.10
39665;DHT22;26679;50.872;4.332;2022-08-21T13:28:13;28.40;78.10
39665;DHT22;26679;50.872;4.332;2022-08-21T13:30:58;28.20;78.50
39665;DHT22;26679;50.872;4.332;2022-08-21T13:33:24;28.00;78.80
39665;DHT22;26679;50.872;4.332;2022-08-21T13:38:24;28.00;79.10
39665;DHT22;26679;50.872;4.332;2022-08-21T13:43:17;28.30;78.40
39665;DHT22;26679;50.872;4.332;2022-08-21T13:45:46;28.40;78.10
39665;DHT22;26679;50.872;4.332;2022-08-21T13:48:12;28.60;77.90
39665;DHT22;26679;50.872;4.332;2022-08-21T13:50:38;29.20;77.50
39665;DHT22;26679;50.872;4.332;2022-08-21T13:53:07;29.60;76.50
39665;DHT22;26679;50.872;4.332;2022-08-21T13:55:44;29.50;76.30
39665;DHT22;26679;50.872;4.332;2022-08-21T13:58:10;29.40;76.70
39665;DHT22;26679;50.872;4.332;2022-08-21T14:00:46;29.20;77.30
39665;DHT22;26679;50.872;4.332;2022-08-21T14:03:11;29.10;77.00
39665;DHT22;26679;50.872;4.332;2022-08-21T14:05:48;28.80;77.70
39665;DHT22;26679;50.872;4.332;2022-08-21T14:08:14;28.70;77.70
39665;DHT22;26679;50.872;4.332;2022-08-21T14:10:42;28.50;77.80
39665;DHT22;26679;50.872;4.332;2022-08-21T14:13:14;28.40;77.90
39665;DHT22;26679;50.872;4.332;2022-08-21T14:15:46;28.20;77.80
39665;DHT22;26679;50.872;4.332;2022-08-21T14:18:19;27.90;78.80
39665;DHT22;26679;50.872;4.332;2022-08-21T14:20:45;27.80;78.50
39665;DHT22;26679;50.872;4.332;2022-08-21T14:23:11;27.60;79.10
39665;DHT22;26679;50.872;4.332;2022-08-21T14:25:42;27.50;79.60
39665;DHT22;26679;50.872;4.332;2022-08-21T14:30:45;27.80;79.60
39665;DHT22;26679;50.872;4.332;2022-08-21T14:33:12;27.90;79.30
39665;DHT22;26679;50.872;4.332;2022-08-21T14:35:38;28.10;79.30
39665;DHT22;26679;50.872;4.332;2022-08-21T14:40:40;28.40;78.60
39665;DHT22;26679;50.872;4.332;2022-08-21T14:43:07;28.60;78.40
39665;DHT22;26679;50.872;4.332;2022-08-21T14:45:33;29.10;78.00
39665;DHT22;26679;50.872;4.332;2022-08-21T14:47:59;29.00;77.70
39665;DHT22;26679;50.872;4.332;2022-08-21T14:50:25;28.80;77.80
39665;DHT22;26679;50.872;4.332;2022-08-21T14:52:51;28.90;78.10
39665;DHT22;26679;50.872;4.332;2022-08-21T14:55:17;28.60;78.30
39665;DHT22;26679;50.872;4.332;2022-08-21T14:57:46;28.40;78.30
39665;DHT22;26679;50.872;4.332;2022-08-21T15:00:16;28.20;77.40
39665;DHT22;26679;50.872;4.332;2022-08-21T15:02:43;27.90;77.90
39665;DHT22;26679;50.872;4.332;2022-08-21T15:05:08;27.50;78.30
39665;DHT22;26679;50.872;4.332;2022-08-21T15:07:34;26.80;79.90
39665;DHT22;26679;50.872;4.332;2022-08-21T15:09:59;26.60;80.20
39665;DHT22;26679;50.872;4.332;2022-08-21T15:12:25;26.70;80.10
39665;DHT22;26679;50.872;4.332;2022-08-21T15:14:51;26.60;80.20
39665;DHT22;26679;50.872;4.332;2022-08-21T15:17:16;26.80;80.50
39665;DHT22;26679;50.872;4.332;2022-08-21T15:19:42;26.80;80.30
39665;DHT22;26679;50.872;4.332;2022-08-21T15:22:07;26.90;80.00
39665;DHT22;26679;50.872;4.332;2022-08-21T15:24:33;26.90;79.20
39665;DHT22;26679;50.872;4.332;2022-08-21T15:26:59;26.80;79.50
39665;DHT22;26679;50.872;4.332;2022-08-21T15:29:25;26.80;80.00
39665;DHT22;26679;50.872;4.332;2022-08-21T15:34:17;26.80;80.20
39665;DHT22;26679;50.872;4.332;2022-08-21T15:36:43;26.60;79.70
39665;DHT22;26679;50.872;4.332;2022-08-21T15:39:08;26.50;80.60
39665;DHT22;26679;50.872;4.332;2022-08-21T15:41:34;26.40;80.70
39665;DHT22;26679;50.872;4.332;2022-08-21T15:43:59;26.40;81.00
39665;DHT22;26679;50.872;4.332;2022-08-21T15:46:25;26.50;80.90
39665;DHT22;26679;50.872;4.332;2022-08-21T15:48:50;26.40;80.90
39665;DHT22;26679;50.872;4.332;2022-08-21T15:51:16;26.30;81.20
39665;DHT22;26679;50.872;4.332;2022-08-21T15:53:42;26.20;81.00
39665;DHT22;26679;50.872;4.332;2022-08-21T15:56:18;26.10;80.80
39665;DHT22;26679;50.872;4.332;2022-08-21T15:58:45;26.20;80.90
39665;DHT22;26679;50.872;4.332;2022-08-21T16:01:10;26.10;80.90
39665;DHT22;26679;50.872;4.332;2022-08-21T16:03:36;26.10;81.00
39665;DHT22;26679;50.872;4.332;2022-08-21T16:06:02;26.00;80.30
39665;DHT22;26679;50.872;4.332;2022-08-21T16:08:27;26.10;80.40
39665;DHT22;26679;50.872;4.332;2022-08-21T16:10:53;26.10;80.30
39665;DHT22;26679;50.872;4.332;2022-08-21T16:13:26;26.10;80.60
39665;DHT22;26679;50.872;4.332;2022-08-21T16:15:52;26.00;80.60
39665;DHT22;26679;50.872;4.332;2022-08-21T16:18:18;26.10;80.10
39665;DHT22;26679;50.872;4.332;2022-08-21T16:20:44;26.30;79.50
39665;DHT22;26679;50.872;4.332;2022-08-21T16:23:10;26.20;80.10
39665;DHT22;26679;50.872;4.332;2022-08-21T16:25:36;26.00;80.60
39665;DHT22;26679;50.872;4.332;2022-08-21T16:28:02;26.10;81.00
39665;DHT22;26679;50.872;4.332;2022-08-21T16:30:28;26.10;80.80
39665;DHT22;26679;50.872;4.332;2022-08-21T16:32:54;26.00;81.30
39665;DHT22;26679;50.872;4.332;2022-08-21T16:35:20;25.90;81.60
39665;DHT22;26679;50.872;4.332;2022-08-21T16:37:46;26.00;82.00
39665;DHT22;26679;50.872;4.332;2022-08-21T16:40:12;26.10;81.30
39665;DHT22;26679;50.872;4.332;2022-08-21T16:42:39;26.00;80.90
39665;DHT22;26679;50.872;4.332;2022-08-21T16:45:06;26.00;80.60
39665;DHT22;26679;50.872;4.332;2022-08-21T16:47:31;26.10;79.10
39665;DHT22;26679;50.872;4.332;2022-08-21T16:49:57;26.00;78.60
39665;DHT22;26679;50.872;4.332;2022-08-21T16:52:23;26.20;79.30
39665;DHT22;26679;50.872;4.332;2022-08-21T16:54:48;26.20;80.30
39665;DHT22;26679;50.872;4.332;2022-08-21T16:57:14;26.30;80.60
39665;DHT22;26679;50.872;4.332;2022-08-21T16:59:40;26.20;80.60
39665;DHT22;26679;50.872;4.332;2022-08-21T17:02:08;26.20;80.90
39665;DHT22;26679;50.872;4.332;2022-08-21T17:04:42;26.20;80.90
39665;DHT22;26679;50.872;4.332;2022-08-21T17:07:08;26.20;80.90
39665;DHT22;26679;50.872;4.332;2022-08-21T17:09:33;26.20;80.50
39665;DHT22;26679;50.872;4.332;2022-08-21T17:11:59;26.10;80.40
39665;DHT22;26679;50.872;4.332;2022-08-21T17:14:24;26.00;80.20
39665;DHT22;26679;50.872;4.332;2022-08-21T17:16:51;26.00;80.50
39665;DHT22;26679;50.872;4.332;2022-08-21T17:19:17;25.90;80.80
39665;DHT22;26679;50.872;4.332;2022-08-21T17:21:43;25.80;80.90
39665;DHT22;26679;50.872;4.332;2022-08-21T17:24:08;25.80;80.70